sensor_id;sensor_type;location;lat;lon;timestamp;P1;durP1;ratioP1;P2;durP2;ratioP2
25175;SDS011;13135;55.166;61.286;2023-09-07T00:01:19;10.33;;;6.20;;
25175;SDS011;13135;55.166;61.286;2023-09-07T00:04:04;9.33;;;6.33;;
25175;SDS011;13135;55.166;61.286;2023-09-07T00:06:49;10.40;;;6.60;;
25175;SDS011;13135;55.166;61.286;2023-09-07T00:09:36;11.23;;;6.57;;
25175;SDS011;13135;55.166;61.286;2023-09-07T00:12:19;11.23;;;6.63;;
25175;SDS011;13135;55.166;61.286;2023-09-07T00:15:05;11.30;;;7.60;;
25175;SDS011;13135;55.166;61.286;2023-09-07T00:17:52;14.97;;;7.80;;
25175;SDS011;13135;55.166;61.286;2023-09-07T00:20:37;12.20;;;7.53;;
25175;SDS011;13135;55.166;61.286;2023-09-07T00:23:21;9.40;;;6.53;;
25175;SDS011;13135;55.166;61.286;2023-09-07T00:26:07;12.30;;;7.67;;
25175;SDS011;13135;55.166;61.286;2023-09-07T00:28:54;13.03;;;6.77;;
25175;SDS011;13135;55.166;61.286;2023-09-07T00:31:39;11.80;;;7.07;;
25175;SDS011;13135;55.166;61.286;2023-09-07T00:34:23;11.63;;;6.90;;
25175;SDS011;13135;55.166;61.286;2023-09-07T00:37:06;12.43;;;7.00;;
25175;SDS011;13135;55.166;61.286;2023-09-07T00:39:51;11.10;;;7.00;;
25175;SDS011;13135;55.166;61.286;2023-09-07T00:42:35;12.77;;;6.60;;
25175;SDS011;13135;55.166;61.286;2023-09-07T00:45:20;13.00;;;6.87;;
25175;SDS011;13135;55.166;61.286;2023-09-07T00:48:04;11.50;;;6.00;;
25175;SDS011;13135;55.166;61.286;2023-09-07T00:50:49;12.57;;;6.80;;
25175;SDS011;13135;55.166;61.286;2023-09-07T00:53:34;11.67;;;6.83;;
25175;SDS011;13135;55.166;61.286;2023-09-07T00:56:20;10.50;;;6.60;;
25175;SDS011;13135;55.166;61.286;2023-09-07T00:59:04;8.97;;;6.07;;
25175;SDS011;13135;55.166;61.286;2023-09-07T01:01:46;11.10;;;6.87;;
25175;SDS011;13135;55.166;61.286;2023-09-07T01:04:29;11.30;;;6.53;;
25175;SDS011;13135;55.166;61.286;2023-09-07T01:07:18;12.13;;;6.43;;
25175;SDS011;13135;55.166;61.286;2023-09-07T01:10:03;11.67;;;6.20;;
25175;SDS011;13135;55.166;61.286;2023-09-07T01:12:48;9.73;;;6.40;;
25175;SDS011;13135;55.166;61.286;2023-09-07T01:15:33;9.57;;;6.03;;
25175;SDS011;13135;55.166;61.286;2023-09-07T01:18:17;10.37;;;6.67;;
25175;SDS011;13135;55.166;61.286;2023-09-07T01:21:00;10.93;;;6.67;;
25175;SDS011;13135;55.166;61.286;2023-09-07T01:23:45;11.23;;;6.47;;
25175;SDS011;13135;55.166;61.286;2023-09-07T01:26:30;8.90;;;6.30;;
25175;SDS011;13135;55.166;61.286;2023-09-07T01:29:14;11.40;;;6.67;;
25175;SDS011;13135;55.166;61.286;2023-09-07T01:31:58;11.50;;;6.63;;
25175;SDS011;13135;55.166;61.286;2023-09-07T01:34:43;12.37;;;6.83;;
25175;SDS011;13135;55.166;61.286;2023-09-07T01:37:27;10.37;;;6.60;;
25175;SDS011;13135;55.166;61.286;2023-09-07T01:40:11;15.73;;;7.00;;
25175;SDS011;13135;55.166;61.286;2023-09-07T01:42:55;11.50;;;6.83;;
25175;SDS011;13135;55.166;61.286;2023-09-07T01:45:44;10.67;;;7.10;;
25175;SDS011;13135;55.166;61.286;2023-09-07T01:48:31;14.70;;;6.73;;
25175;SDS011;13135;55.166;61.286;2023-09-07T01:51:15;12.30;;;6.90;;
25175;SDS011;13135;55.166;61.286;2023-09-07T01:54:01;12.70;;;6.97;;
25175;SDS011;13135;55.166;61.286;2023-09-07T01:56:47;12.50;;;6.83;;
25175;SDS011;13135;55.166;61.286;2023-09-07T01:59:34;59.57;;;30.40;;
25175;SDS011;13135;55.166;61.286;2023-09-07T02:02:19;32.33;;;15.97;;
25175;SDS011;13135;55.166;61.286;2023-09-07T02:05:04;32.40;;;13.43;;
25175;SDS011;13135;55.166;61.286;2023-09-07T02:07:52;32.00;;;14.23;;
25175;SDS011;13135;55.166;61.286;2023-09-07T02:10:38;18.57;;;11.50;;
25175;SDS011;13135;55.166;61.286;2023-09-07T02:13:22;31.17;;;15.37;;
25175;SDS011;13135;55.166;61.286;2023-09-07T02:16:08;27.10;;;10.83;;
25175;SDS011;13135;55.166;61.286;2023-09-07T02:19:00;27.37;;;8.73;;
25175;SDS011;13135;55.166;61.286;2023-09-07T02:21:39;30.90;;;9.57;;
25175;SDS011;13135;55.166;61.286;2023-09-07T02:24:23;34.60;;;8.87;;
25175;SDS011;13135;55.166;61.286;2023-09-07T02:27:07;76.30;;;32.80;;
25175;SDS011;13135;55.166;61.286;2023-09-07T02:29:51;56.20;;;25.87;;
25175;SDS011;13135;55.166;61.286;2023-09-07T02:32:36;31.93;;;12.30;;
25175;SDS011;13135;55.166;61.286;2023-09-07T02:35:21;29.47;;;12.00;;
25175;SDS011;13135;55.166;61.286;2023-09-07T02:38:02;37.10;;;12.53;;
25175;SDS011;13135;55.166;61.286;2023-09-07T02:40:47;111.87;;;55.03;;
25175;SDS011;13135;55.166;61.286;2023-09-07T02:43:32;40.30;;;18.87;;
25175;SDS011;13135;55.166;61.286;2023-09-07T02:46:16;33.83;;;15.20;;
25175;SDS011;13135;55.166;61.286;2023-09-07T02:49:00;29.73;;;12.70;;
25175;SDS011;13135;55.166;61.286;2023-09-07T02:51:45;20.57;;;7.70;;
25175;SDS011;13135;55.166;61.286;2023-09-07T02:54:30;25.97;;;7.60;;
25175;SDS011;13135;55.166;61.286;2023-09-07T02:57:16;26.77;;;8.30;;
25175;SDS011;13135;55.166;61.286;2023-09-07T03:00:01;18.00;;;9.20;;
25175;SDS011;13135;55.166;61.286;2023-09-07T03:02:47;23.17;;;8.37;;
25175;SDS011;13135;55.166;61.286;2023-09-07T03:05:31;26.83;;;7.87;;
25175;SDS011;13135;55.166;61.286;2023-09-07T03:08:13;16.67;;;7.33;;
25175;SDS011;13135;55.166;61.286;2023-09-07T03:10:58;24.20;;;7.30;;
25175;SDS011;13135;55.166;61.286;2023-09-07T03:13:43;15.07;;;6.87;;
25175;SDS011;13135;55.166;61.286;2023-09-07T03:16:28;21.70;;;6.93;;
25175;SDS011;13135;55.166;61.286;2023-09-07T03:19:14;15.77;;;6.93;;
25175;SDS011;13135;55.166;61.286;2023-09-07T03:21:59;14.73;;;7.07;;
25175;SDS011;13135;55.166;61.286;2023-09-07T03:24:43;15.80;;;7.40;;
25175;SDS011;13135;55.166;61.286;2023-09-07T03:27:28;11.57;;;7.10;;
25175;SDS011;13135;55.166;61.286;2023-09-07T03:30:14;11.20;;;7.17;;
25175;SDS011;13135;55.166;61.286;2023-09-07T03:32:59;10.37;;;6.80;;
25175;SDS011;13135;55.166;61.286;2023-09-07T03:35:46;12.30;;;7.93;;
25175;SDS011;13135;55.166;61.286;2023-09-07T03:38:30;11.27;;;7.93;;
25175;SDS011;13135;55.166;61.286;2023-09-07T03:41:15;13.80;;;7.70;;
25175;SDS011;13135;55.166;61.286;2023-09-07T03:44:00;12.13;;;7.23;;
25175;SDS011;13135;55.166;61.286;2023-09-07T03:46:44;11.50;;;8.00;;
25175;SDS011;13135;55.166;61.286;2023-09-07T03:49:28;12.67;;;8.73;;
25175;SDS011;13135;55.166;61.286;2023-09-07T03:52:13;15.77;;;8.03;;
25175;SDS011;13135;55.166;61.286;2023-09-07T03:55:00;13.63;;;8.67;;
25175;SDS011;13135;55.166;61.286;2023-09-07T03:57:44;12.97;;;8.13;;
25175;SDS011;13135;55.166;61.286;2023-09-07T04:00:28;30.07;;;15.50;;
25175;SDS011;13135;55.166;61.286;2023-09-07T04:03:15;23.87;;;11.20;;
25175;SDS011;13135;55.166;61.286;2023-09-07T04:05:59;14.23;;;8.80;;
25175;SDS011;13135;55.166;61.286;2023-09-07T04:08:44;14.47;;;9.13;;
25175;SDS011;13135;55.166;61.286;2023-09-07T04:11:29;24.43;;;10.47;;
25175;SDS011;13135;55.166;61.286;2023-09-07T04:14:14;24.27;;;9.47;;
25175;SDS011;13135;55.166;61.286;2023-09-07T04:16:58;18.60;;;9.63;;
25175;SDS011;13135;55.166;61.286;2023-09-07T04:19:42;20.80;;;9.77;;
25175;SDS011;13135;55.166;61.286;2023-09-07T04:22:27;21.20;;;10.63;;
25175;SDS011;13135;55.166;61.286;2023-09-07T04:25:11;21.17;;;10.00;;
25175;SDS011;13135;55.166;61.286;2023-09-07T04:27:56;23.30;;;10.90;;
25175;SDS011;13135;55.166;61.286;2023-09-07T04:30:41;16.63;;;9.17;;
25175;SDS011;13135;55.166;61.286;2023-09-07T04:33:26;14.13;;;8.03;;
25175;SDS011;13135;55.166;61.286;2023-09-07T04:36:11;15.70;;;8.53;;
25175;SDS011;13135;55.166;61.286;2023-09-07T04:38:56;14.53;;;8.93;;
25175;SDS011;13135;55.166;61.286;2023-09-07T04:41:41;19.50;;;9.17;;
25175;SDS011;13135;55.166;61.286;2023-09-07T04:44:25;12.30;;;8.23;;
25175;SDS011;13135;55.166;61.286;2023-09-07T04:47:08;16.63;;;8.30;;
25175;SDS011;13135;55.166;61.286;2023-09-07T04:49:53;13.80;;;8.70;;
25175;SDS011;13135;55.166;61.286;2023-09-07T04:52:38;14.73;;;8.97;;
25175;SDS011;13135;55.166;61.286;2023-09-07T04:55:23;13.50;;;8.83;;
25175;SDS011;13135;55.166;61.286;2023-09-07T04:58:07;16.40;;;9.03;;
25175;SDS011;13135;55.166;61.286;2023-09-07T05:00:52;16.53;;;8.17;;
25175;SDS011;13135;55.166;61.286;2023-09-07T05:03:44;16.50;;;9.37;;
25175;SDS011;13135;55.166;61.286;2023-09-07T05:06:29;14.90;;;9.17;;
25175;SDS011;13135;55.166;61.286;2023-09-07T05:09:16;16.47;;;9.13;;
25175;SDS011;13135;55.166;61.286;2023-09-07T05:12:03;17.07;;;9.33;;
25175;SDS011;13135;55.166;61.286;2023-09-07T05:14:47;15.00;;;9.23;;
25175;SDS011;13135;55.166;61.286;2023-09-07T05:17:28;15.43;;;8.80;;
25175;SDS011;13135;55.166;61.286;2023-09-07T05:20:13;17.27;;;10.03;;
25175;SDS011;13135;55.166;61.286;2023-09-07T05:22:57;14.80;;;8.93;;
25175;SDS011;13135;55.166;61.286;2023-09-07T05:25:42;15.73;;;9.07;;
25175;SDS011;13135;55.166;61.286;2023-09-07T05:28:26;20.37;;;9.50;;
25175;SDS011;13135;55.166;61.286;2023-09-07T05:31:11;16.93;;;9.73;;
25175;SDS011;13135;55.166;61.286;2023-09-07T05:33:55;17.93;;;9.47;;
25175;SDS011;13135;55.166;61.286;2023-09-07T05:36:40;18.40;;;9.73;;
25175;SDS011;13135;55.166;61.286;2023-09-07T05:39:25;18.83;;;10.03;;
25175;SDS011;13135;55.166;61.286;2023-09-07T05:42:09;14.47;;;9.40;;
25175;SDS011;13135;55.166;61.286;2023-09-07T05:44:54;18.57;;;9.30;;
25175;SDS011;13135;55.166;61.286;2023-09-07T05:47:38;14.90;;;9.00;;
25175;SDS011;13135;55.166;61.286;2023-09-07T05:50:22;12.30;;;8.43;;
25175;SDS011;13135;55.166;61.286;2023-09-07T05:53:06;13.80;;;8.17;;
25175;SDS011;13135;55.166;61.286;2023-09-07T05:55:51;15.87;;;8.83;;
25175;SDS011;13135;55.166;61.286;2023-09-07T05:58:35;14.70;;;8.30;;
25175;SDS011;13135;55.166;61.286;2023-09-07T06:01:20;13.77;;;8.07;;
25175;SDS011;13135;55.166;61.286;2023-09-07T06:04:05;11.47;;;7.20;;
25175;SDS011;13135;55.166;61.286;2023-09-07T06:06:49;10.90;;;7.40;;
25175;SDS011;13135;55.166;61.286;2023-09-07T06:09:33;10.93;;;7.30;;
25175;SDS011;13135;55.166;61.286;2023-09-07T06:12:18;13.03;;;7.70;;
25175;SDS011;13135;55.166;61.286;2023-09-07T06:15:03;10.87;;;7.17;;
25175;SDS011;13135;55.166;61.286;2023-09-07T06:17:48;11.93;;;7.23;;
25175;SDS011;13135;55.166;61.286;2023-09-07T06:20:35;10.90;;;7.90;;
25175;SDS011;13135;55.166;61.286;2023-09-07T06:23:19;13.60;;;7.93;;
25175;SDS011;13135;55.166;61.286;2023-09-07T06:26:04;13.47;;;7.90;;
25175;SDS011;13135;55.166;61.286;2023-09-07T06:28:49;12.30;;;7.27;;
25175;SDS011;13135;55.166;61.286;2023-09-07T06:31:33;17.87;;;8.03;;
25175;SDS011;13135;55.166;61.286;2023-09-07T06:34:17;12.30;;;7.63;;
25175;SDS011;13135;55.166;61.286;2023-09-07T06:37:02;15.33;;;8.03;;
25175;SDS011;13135;55.166;61.286;2023-09-07T06:39:47;11.57;;;7.70;;
25175;SDS011;13135;55.166;61.286;2023-09-07T06:42:31;12.40;;;7.10;;
25175;SDS011;13135;55.166;61.286;2023-09-07T06:45:15;11.57;;;7.43;;
25175;SDS011;13135;55.166;61.286;2023-09-07T06:47:59;10.83;;;7.20;;
25175;SDS011;13135;55.166;61.286;2023-09-07T06:50:44;11.40;;;7.33;;
25175;SDS011;13135;55.166;61.286;2023-09-07T06:53:29;10.77;;;6.83;;
25175;SDS011;13135;55.166;61.286;2023-09-07T06:56:13;10.80;;;7.10;;
25175;SDS011;13135;55.166;61.286;2023-09-07T06:58:58;10.17;;;6.50;;
25175;SDS011;13135;55.166;61.286;2023-09-07T07:01:39;12.70;;;7.43;;
25175;SDS011;13135;55.166;61.286;2023-09-07T07:04:24;9.23;;;6.03;;
25175;SDS011;13135;55.166;61.286;2023-09-07T07:07:09;9.13;;;5.63;;
25175;SDS011;13135;55.166;61.286;2023-09-07T07:09:54;8.20;;;5.50;;
25175;SDS011;13135;55.166;61.286;2023-09-07T07:12:39;10.53;;;6.40;;
25175;SDS011;13135;55.166;61.286;2023-09-07T07:15:24;9.02;;;5.43;;
25175;SDS011;13135;55.166;61.286;2023-09-07T07:18:08;11.43;;;5.82;;
25175;SDS011;13135;55.166;61.286;2023-09-07T07:20:55;6.90;;;5.00;;
25175;SDS011;13135;55.166;61.286;2023-09-07T07:23:39;5.90;;;4.95;;
25175;SDS011;13135;55.166;61.286;2023-09-07T07:26:29;7.43;;;5.07;;
25175;SDS011;13135;55.166;61.286;2023-09-07T07:29:16;9.50;;;5.35;;
25175;SDS011;13135;55.166;61.286;2023-09-07T07:31:59;9.10;;;4.85;;
25175;SDS011;13135;55.166;61.286;2023-09-07T07:34:44;8.50;;;5.60;;
25175;SDS011;13135;55.166;61.286;2023-09-07T07:37:29;9.67;;;5.87;;
25175;SDS011;13135;55.166;61.286;2023-09-07T07:40:14;7.97;;;5.12;;
25175;SDS011;13135;55.166;61.286;2023-09-07T07:43:01;10.17;;;5.17;;
25175;SDS011;13135;55.166;61.286;2023-09-07T07:45:46;9.00;;;5.82;;
25175;SDS011;13135;55.166;61.286;2023-09-07T07:48:29;9.13;;;5.65;;
25175;SDS011;13135;55.166;61.286;2023-09-07T07:51:14;9.63;;;5.50;;
25175;SDS011;13135;55.166;61.286;2023-09-07T07:53:55;7.18;;;5.57;;
25175;SDS011;13135;55.166;61.286;2023-09-07T07:56:40;8.07;;;5.10;;
25175;SDS011;13135;55.166;61.286;2023-09-07T07:59:23;8.90;;;5.37;;
25175;SDS011;13135;55.166;61.286;2023-09-07T08:02:08;8.10;;;5.30;;
25175;SDS011;13135;55.166;61.286;2023-09-07T08:04:53;7.28;;;5.60;;
25175;SDS011;13135;55.166;61.286;2023-09-07T08:07:38;7.90;;;5.10;;
25175;SDS011;13135;55.166;61.286;2023-09-07T08:10:22;8.25;;;5.10;;
25175;SDS011;13135;55.166;61.286;2023-09-07T08:13:06;10.38;;;5.32;;
25175;SDS011;13135;55.166;61.286;2023-09-07T08:15:50;7.55;;;5.00;;
25175;SDS011;13135;55.166;61.286;2023-09-07T08:18:36;6.75;;;4.70;;
25175;SDS011;13135;55.166;61.286;2023-09-07T08:21:21;4.82;;;4.07;;
25175;SDS011;13135;55.166;61.286;2023-09-07T08:24:06;6.35;;;4.55;;
25175;SDS011;13135;55.166;61.286;2023-09-07T08:26:51;7.20;;;4.37;;
25175;SDS011;13135;55.166;61.286;2023-09-07T08:29:35;9.50;;;4.45;;
25175;SDS011;13135;55.166;61.286;2023-09-07T08:32:20;6.45;;;4.12;;
25175;SDS011;13135;55.166;61.286;2023-09-07T08:35:05;7.47;;;4.32;;
25175;SDS011;13135;55.166;61.286;2023-09-07T08:37:50;5.15;;;4.00;;
25175;SDS011;13135;55.166;61.286;2023-09-07T08:40:34;7.18;;;4.10;;
25175;SDS011;13135;55.166;61.286;2023-09-07T08:43:18;6.25;;;3.97;;
25175;SDS011;13135;55.166;61.286;2023-09-07T08:46:08;6.90;;;3.30;;
25175;SDS011;13135;55.166;61.286;2023-09-07T08:48:50;5.12;;;3.15;;
25175;SDS011;13135;55.166;61.286;2023-09-07T08:51:34;5.07;;;3.03;;
25175;SDS011;13135;55.166;61.286;2023-09-07T08:54:19;4.93;;;3.37;;
25175;SDS011;13135;55.166;61.286;2023-09-07T08:57:04;4.50;;;3.20;;
25175;SDS011;13135;55.166;61.286;2023-09-07T08:59:50;5.87;;;3.25;;
25175;SDS011;13135;55.166;61.286;2023-09-07T09:02:35;3.67;;;3.05;;
25175;SDS011;13135;55.166;61.286;2023-09-07T09:05:20;3.97;;;3.37;;
25175;SDS011;13135;55.166;61.286;2023-09-07T09:08:04;5.78;;;3.35;;
25175;SDS011;13135;55.166;61.286;2023-09-07T09:11:04;4.32;;;3.47;;
25175;SDS011;13135;55.166;61.286;2023-09-07T09:13:52;6.82;;;3.45;;
25175;SDS011;13135;55.166;61.286;2023-09-07T09:16:36;7.28;;;3.90;;
25175;SDS011;13135;55.166;61.286;2023-09-07T09:19:29;4.12;;;3.40;;
25175;SDS011;13135;55.166;61.286;2023-09-07T09:22:05;4.50;;;3.90;;
25175;SDS011;13135;55.166;61.286;2023-09-07T09:24:50;4.82;;;3.58;;
25175;SDS011;13135;55.166;61.286;2023-09-07T09:27:35;7.32;;;3.58;;
25175;SDS011;13135;55.166;61.286;2023-09-07T09:30:18;5.70;;;3.50;;
25175;SDS011;13135;55.166;61.286;2023-09-07T09:33:03;5.78;;;3.37;;
25175;SDS011;13135;55.166;61.286;2023-09-07T09:35:51;6.87;;;3.70;;
25175;SDS011;13135;55.166;61.286;2023-09-07T09:38:36;4.72;;;3.53;;
25175;SDS011;13135;55.166;61.286;2023-09-07T09:44:40;5.40;;;3.30;;
25175;SDS011;13135;55.166;61.286;2023-09-07T09:47:24;4.25;;;3.35;;
25175;SDS011;13135;55.166;61.286;2023-09-07T09:50:11;4.07;;;3.37;;
25175;SDS011;13135;55.166;61.286;2023-09-07T09:52:57;4.97;;;3.22;;
25175;SDS011;13135;55.166;61.286;2023-09-07T09:55:42;4.55;;;3.28;;
25175;SDS011;13135;55.166;61.286;2023-09-07T09:58:27;3.20;;;2.87;;
25175;SDS011;13135;55.166;61.286;2023-09-07T10:01:11;4.90;;;3.22;;
25175;SDS011;13135;55.166;61.286;2023-09-07T10:03:55;4.95;;;3.50;;
25175;SDS011;13135;55.166;61.286;2023-09-07T10:06:49;4.62;;;3.42;;
25175;SDS011;13135;55.166;61.286;2023-09-07T10:09:28;5.87;;;3.42;;
25175;SDS011;13135;55.166;61.286;2023-09-07T10:12:11;3.97;;;3.37;;
25175;SDS011;13135;55.166;61.286;2023-09-07T10:14:56;5.65;;;4.00;;
25175;SDS011;13135;55.166;61.286;2023-09-07T10:17:41;5.47;;;3.55;;
25175;SDS011;13135;55.166;61.286;2023-09-07T10:20:26;6.65;;;3.53;;
25175;SDS011;13135;55.166;61.286;2023-09-07T10:23:10;4.53;;;3.60;;
25175;SDS011;13135;55.166;61.286;2023-09-07T10:25:54;5.97;;;3.70;;
25175;SDS011;13135;55.166;61.286;2023-09-07T10:28:39;5.65;;;3.40;;
25175;SDS011;13135;55.166;61.286;2023-09-07T10:31:25;4.03;;;3.17;;
25175;SDS011;13135;55.166;61.286;2023-09-07T10:34:10;4.93;;;3.58;;
25175;SDS011;13135;55.166;61.286;2023-09-07T10:36:55;5.53;;;3.53;;
25175;SDS011;13135;55.166;61.286;2023-09-07T10:39:40;4.90;;;3.28;;
25175;SDS011;13135;55.166;61.286;2023-09-07T10:42:25;5.05;;;3.10;;
25175;SDS011;13135;55.166;61.286;2023-09-07T10:45:10;4.57;;;3.37;;
25175;SDS011;13135;55.166;61.286;2023-09-07T10:47:55;4.53;;;3.28;;
25175;SDS011;13135;55.166;61.286;2023-09-07T10:50:44;3.47;;;3.17;;
25175;SDS011;13135;55.166;61.286;2023-09-07T10:53:30;5.85;;;3.72;;
25175;SDS011;13135;55.166;61.286;2023-09-07T10:56:14;4.37;;;3.50;;
25175;SDS011;13135;55.166;61.286;2023-09-07T10:58:58;4.47;;;3.37;;
25175;SDS011;13135;55.166;61.286;2023-09-07T11:01:44;4.95;;;3.45;;
25175;SDS011;13135;55.166;61.286;2023-09-07T11:04:29;6.97;;;3.35;;
25175;SDS011;13135;55.166;61.286;2023-09-07T11:07:19;4.65;;;3.50;;
25175;SDS011;13135;55.166;61.286;2023-09-07T11:10:06;5.10;;;3.15;;
25175;SDS011;13135;55.166;61.286;2023-09-07T11:12:54;4.50;;;3.35;;
25175;SDS011;13135;55.166;61.286;2023-09-07T11:15:41;5.00;;;3.50;;
25175;SDS011;13135;55.166;61.286;2023-09-07T11:18:26;4.07;;;3.60;;
25175;SDS011;13135;55.166;61.286;2023-09-07T11:21:10;4.82;;;3.58;;
25175;SDS011;13135;55.166;61.286;2023-09-07T11:23:55;5.05;;;3.45;;
25175;SDS011;13135;55.166;61.286;2023-09-07T11:26:43;5.55;;;3.83;;
25175;SDS011;13135;55.166;61.286;2023-09-07T11:29:31;4.40;;;3.10;;
25175;SDS011;13135;55.166;61.286;2023-09-07T11:32:13;4.80;;;3.30;;
25175;SDS011;13135;55.166;61.286;2023-09-07T11:34:58;3.97;;;3.55;;
25175;SDS011;13135;55.166;61.286;2023-09-07T11:37:40;3.78;;;3.25;;
25175;SDS011;13135;55.166;61.286;2023-09-07T11:40:24;3.65;;;3.33;;
25175;SDS011;13135;55.166;61.286;2023-09-07T11:43:09;6.30;;;3.80;;
25175;SDS011;13135;55.166;61.286;2023-09-07T11:46:01;4.95;;;3.08;;
25175;SDS011;13135;55.166;61.286;2023-09-07T11:52:21;5.40;;;3.53;;
25175;SDS011;13135;55.166;61.286;2023-09-07T11:55:06;5.87;;;3.70;;
25175;SDS011;13135;55.166;61.286;2023-09-07T11:57:51;4.30;;;3.60;;
25175;SDS011;13135;55.166;61.286;2023-09-07T12:00:36;7.65;;;3.78;;
25175;SDS011;13135;55.166;61.286;2023-09-07T12:03:21;5.05;;;4.07;;
25175;SDS011;13135;55.166;61.286;2023-09-07T12:06:06;5.70;;;3.92;;
25175;SDS011;13135;55.166;61.286;2023-09-07T12:08:58;5.93;;;4.00;;
25175;SDS011;13135;55.166;61.286;2023-09-07T12:11:43;6.50;;;4.10;;
25175;SDS011;13135;55.166;61.286;2023-09-07T12:14:29;6.50;;;4.10;;
25175;SDS011;13135;55.166;61.286;2023-09-07T12:17:14;5.55;;;3.70;;
25175;SDS011;13135;55.166;61.286;2023-09-07T12:19:59;6.00;;;4.12;;
25175;SDS011;13135;55.166;61.286;2023-09-07T12:22:43;8.18;;;4.25;;
25175;SDS011;13135;55.166;61.286;2023-09-07T12:25:30;5.68;;;3.47;;
25175;SDS011;13135;55.166;61.286;2023-09-07T12:28:15;5.70;;;3.45;;
25175;SDS011;13135;55.166;61.286;2023-09-07T12:31:00;6.12;;;3.78;;
25175;SDS011;13135;55.166;61.286;2023-09-07T12:33:44;4.37;;;3.50;;
25175;SDS011;13135;55.166;61.286;2023-09-07T12:36:29;5.78;;;3.30;;
25175;SDS011;13135;55.166;61.286;2023-09-07T12:39:14;7.22;;;3.47;;
25175;SDS011;13135;55.166;61.286;2023-09-07T12:42:00;7.75;;;3.53;;
25175;SDS011;13135;55.166;61.286;2023-09-07T12:44:46;5.32;;;3.33;;
25175;SDS011;13135;55.166;61.286;2023-09-07T12:47:33;7.15;;;3.30;;
25175;SDS011;13135;55.166;61.286;2023-09-07T12:50:17;3.47;;;3.12;;
25175;SDS011;13135;55.166;61.286;2023-09-07T12:53:04;6.20;;;3.22;;
25175;SDS011;13135;55.166;61.286;2023-09-07T12:55:53;7.28;;;3.60;;
25175;SDS011;13135;55.166;61.286;2023-09-07T12:58:39;6.82;;;3.83;;
25175;SDS011;13135;55.166;61.286;2023-09-07T13:01:23;8.23;;;3.62;;
25175;SDS011;13135;55.166;61.286;2023-09-07T13:04:07;9.00;;;3.83;;
25175;SDS011;13135;55.166;61.286;2023-09-07T13:06:52;9.02;;;3.62;;
25175;SDS011;13135;55.166;61.286;2023-09-07T13:09:37;6.70;;;3.42;;
25175;SDS011;13135;55.166;61.286;2023-09-07T13:12:20;5.35;;;3.53;;
25175;SDS011;13135;55.166;61.286;2023-09-07T13:15:05;6.20;;;4.12;;
25175;SDS011;13135;55.166;61.286;2023-09-07T13:17:51;5.70;;;3.95;;
25175;SDS011;13135;55.166;61.286;2023-09-07T13:20:36;6.85;;;3.60;;
25175;SDS011;13135;55.166;61.286;2023-09-07T13:23:21;16.62;;;4.50;;
25175;SDS011;13135;55.166;61.286;2023-09-07T13:26:05;8.23;;;4.40;;
25175;SDS011;13135;55.166;61.286;2023-09-07T13:28:52;7.05;;;4.10;;
25175;SDS011;13135;55.166;61.286;2023-09-07T13:31:37;7.40;;;4.35;;
25175;SDS011;13135;55.166;61.286;2023-09-07T13:34:22;10.45;;;4.22;;
25175;SDS011;13135;55.166;61.286;2023-09-07T13:37:09;5.60;;;4.00;;
25175;SDS011;13135;55.166;61.286;2023-09-07T13:39:52;10.35;;;4.60;;
25175;SDS011;13135;55.166;61.286;2023-09-07T13:42:36;5.87;;;4.53;;
25175;SDS011;13135;55.166;61.286;2023-09-07T13:45:21;9.63;;;6.62;;
25175;SDS011;13135;55.166;61.286;2023-09-07T13:48:06;25.33;;;17.25;;
25175;SDS011;13135;55.166;61.286;2023-09-07T13:50:48;16.42;;;10.43;;
25175;SDS011;13135;55.166;61.286;2023-09-07T13:53:32;9.02;;;5.62;;
25175;SDS011;13135;55.166;61.286;2023-09-07T13:56:17;10.55;;;4.97;;
25175;SDS011;13135;55.166;61.286;2023-09-07T13:59:01;15.80;;;10.43;;
25175;SDS011;13135;55.166;61.286;2023-09-07T14:04:57;9.98;;;6.05;;
25175;SDS011;13135;55.166;61.286;2023-09-07T14:07:42;12.50;;;5.90;;
25175;SDS011;13135;55.166;61.286;2023-09-07T14:10:26;11.07;;;5.82;;
25175;SDS011;13135;55.166;61.286;2023-09-07T14:13:12;11.68;;;6.10;;
25175;SDS011;13135;55.166;61.286;2023-09-07T14:15:57;13.15;;;7.15;;
25175;SDS011;13135;55.166;61.286;2023-09-07T14:18:41;12.07;;;7.12;;
25175;SDS011;13135;55.166;61.286;2023-09-07T14:21:27;14.65;;;7.85;;
25175;SDS011;13135;55.166;61.286;2023-09-07T14:24:13;13.75;;;6.87;;
25175;SDS011;13135;55.166;61.286;2023-09-07T14:27:00;14.02;;;7.35;;
25175;SDS011;13135;55.166;61.286;2023-09-07T14:29:45;12.13;;;6.62;;
25175;SDS011;13135;55.166;61.286;2023-09-07T14:32:29;14.20;;;6.93;;
25175;SDS011;13135;55.166;61.286;2023-09-07T14:35:16;14.32;;;7.62;;
25175;SDS011;13135;55.166;61.286;2023-09-07T14:38:00;22.05;;;15.15;;
25175;SDS011;13135;55.166;61.286;2023-09-07T14:40:45;33.20;;;20.45;;
25175;SDS011;13135;55.166;61.286;2023-09-07T14:43:30;18.45;;;12.10;;
25175;SDS011;13135;55.166;61.286;2023-09-07T14:46:17;14.32;;;8.40;;
25175;SDS011;13135;55.166;61.286;2023-09-07T14:49:01;13.52;;;9.23;;
25175;SDS011;13135;55.166;61.286;2023-09-07T14:51:44;13.60;;;7.97;;
25175;SDS011;13135;55.166;61.286;2023-09-07T14:54:29;15.73;;;8.07;;
25175;SDS011;13135;55.166;61.286;2023-09-07T14:57:14;12.25;;;8.45;;
25175;SDS011;13135;55.166;61.286;2023-09-07T14:59:59;13.30;;;9.15;;
25175;SDS011;13135;55.166;61.286;2023-09-07T15:02:44;15.25;;;9.20;;
25175;SDS011;13135;55.166;61.286;2023-09-07T15:05:30;14.23;;;8.57;;
25175;SDS011;13135;55.166;61.286;2023-09-07T15:08:15;15.15;;;9.02;;
25175;SDS011;13135;55.166;61.286;2023-09-07T15:11:05;16.75;;;9.00;;
25175;SDS011;13135;55.166;61.286;2023-09-07T15:13:48;13.20;;;8.70;;
25175;SDS011;13135;55.166;61.286;2023-09-07T15:16:33;15.18;;;8.77;;
25175;SDS011;13135;55.166;61.286;2023-09-07T15:19:18;11.55;;;8.57;;
25175;SDS011;13135;55.166;61.286;2023-09-07T15:22:03;23.30;;;13.35;;
25175;SDS011;13135;55.166;61.286;2023-09-07T15:24:48;32.75;;;19.80;;
25175;SDS011;13135;55.166;61.286;2023-09-07T15:27:32;36.17;;;22.62;;
25175;SDS011;13135;55.166;61.286;2023-09-07T15:30:19;20.85;;;12.37;;
25175;SDS011;13135;55.166;61.286;2023-09-07T15:33:03;16.65;;;8.73;;
25175;SDS011;13135;55.166;61.286;2023-09-07T15:35:47;34.67;;;21.23;;
25175;SDS011;13135;55.166;61.286;2023-09-07T15:38:32;20.02;;;10.68;;
25175;SDS011;13135;55.166;61.286;2023-09-07T15:41:18;18.25;;;10.27;;
25175;SDS011;13135;55.166;61.286;2023-09-07T15:44:03;27.08;;;15.30;;
25175;SDS011;13135;55.166;61.286;2023-09-07T15:46:55;21.10;;;11.88;;
25175;SDS011;13135;55.166;61.286;2023-09-07T15:49:39;19.65;;;12.77;;
25175;SDS011;13135;55.166;61.286;2023-09-07T15:52:26;15.95;;;9.05;;
25175;SDS011;13135;55.166;61.286;2023-09-07T15:55:11;14.73;;;8.75;;
25175;SDS011;13135;55.166;61.286;2023-09-07T15:57:57;16.52;;;9.10;;
25175;SDS011;13135;55.166;61.286;2023-09-07T16:00:41;14.85;;;8.65;;
25175;SDS011;13135;55.166;61.286;2023-09-07T16:03:26;13.20;;;8.23;;
25175;SDS011;13135;55.166;61.286;2023-09-07T16:06:17;12.95;;;7.80;;
25175;SDS011;13135;55.166;61.286;2023-09-07T16:09:02;11.55;;;7.28;;
25175;SDS011;13135;55.166;61.286;2023-09-07T16:11:46;11.93;;;7.93;;
25175;SDS011;13135;55.166;61.286;2023-09-07T16:14:30;11.90;;;7.70;;
25175;SDS011;13135;55.166;61.286;2023-09-07T16:17:14;14.48;;;8.02;;
25175;SDS011;13135;55.166;61.286;2023-09-07T16:20:00;13.20;;;8.18;;